Flight Track Log - Related Links

Times and Time Zones

All times are in EDT time to prevent confusion due to time zone crossing. See the SWA2055 flight status page for this flight to view local times or setup timezone preferences in your user account.

Time Position Orientation Groundspeed Altitude Reporting Facility
EDT Latitude Longitude Course Direction KTS MPH feet Rate Location/Type
Mon 01:08:09 AM 38.7333 -121.6000 108° East 159 183 1,900  Level Northern Cal TRACON
Mon 01:09:15 AM 38.7167 -121.5333 108° East 241 277 4,100 2,517 Climbing Northern Cal TRACON
Mon 01:11:03 AM 38.6425 -121.4231 131° Southeast 267 307 9,200 2,679 Climbing Oakland Center
Mon 01:12:03 AM 38.5953 -121.3369 125° Southeast 307 353 11,600 2,281 Climbing Oakland Center
Mon 01:13:04 AM 38.5364 -121.2325 126° Southeast 361 415 13,800 2,508 Climbing Oakland Center
Mon 01:14:05 AM 38.4725 -121.1158 125° Southeast 375 432 16,700 2,410 Climbing Oakland Center
Mon 01:15:06 AM 38.4069 -120.9975 125° Southeast 404 465 18,700 2,104 Climbing Oakland Center
Mon 01:16:19 AM 38.3233 -120.8528 126° Southeast 423 487 21,400 2,015 Climbing Oakland Center
Mon 01:17:20 AM 38.2511 -120.7283 126° Southeast 430 495 23,200 1,736 Climbing Oakland Center
Mon 01:18:20 AM 38.1761 -120.5958 126° Southeast 457 526 24,900 1,686 Climbing Oakland Center
Mon 01:19:21 AM 38.0983 -120.4625 127° Southeast 467 537 26,600 1,426 Climbing Oakland Center
Mon 01:20:22 AM 38.0011 -120.3453 136° Southeast 484 557 27,800 1,328 Climbing Oakland Center
Mon 01:21:23 AM 37.8842 -120.2506 147° Southeast 496 571 29,300 1,525 Climbing Oakland Center
Mon 01:22:24 AM 37.7711 -120.1528 146° Southeast 495 570 30,900 843 Climbing Oakland Center
Mon 01:23:24 AM 37.6567 -120.0572 147° Southeast 495 570 31,000 50 Climbing Oakland Center
Mon 01:24:25 AM 37.5447 -119.9606 146° Southeast 490 564 31,000  Level Oakland Center
Mon 01:25:26 AM 37.4314 -119.8686 147° Southeast 487 560 31,000  Level Oakland Center
Mon 01:26:27 AM 37.3142 -119.7714 147° Southeast 492 566 31,000  Level Oakland Center
Mon 01:27:27 AM 37.1947 -119.6778 148° Southeast 502 578 31,000  Level Oakland Center
Mon 01:28:28 AM 37.0561 -119.6622 175° South 502 578 31,000 934 Level Oakland Center
Mon 01:29:29 AM 36.9206 -119.6561 178° South 492 566 32,900 1,672 Climbing Oakland Center
Mon 01:30:30 AM 36.7869 -119.6514 178° South 484 557 34,400 1,140 Climbing Oakland Center
Mon 01:31:30 AM 36.6536 -119.6436 177° South 483 556 35,200 1,091 Climbing Oakland Center
Mon 01:32:31 AM 36.4919 -119.6369 178° South 482 555 36,600 885 Climbing Oakland Center
Mon 01:33:32 AM 36.3572 -119.6314 178° South 483 556 37,000 197 Climbing Oakland Center
Mon 01:34:33 AM 36.2219 -119.6244 178° South 483 556 37,000  Level Oakland Center
Mon 01:35:33 AM 36.0878 -119.6197 178° South 483 556 37,000  Level Oakland Center
Mon 01:36:34 AM 35.9536 -119.6153 178° South 483 556 37,000  Level Oakland Center
Mon 01:37:35 AM 35.8197 -119.6214 182° South 482 555 37,000  Level Oakland Center
Mon 01:38:35 AM 35.6856 -119.6267 182° South 482 555 37,000  Level Oakland Center
Mon 01:39:23 AM 35.5783 -119.6303 182° South 478 550 37,000  Level Los Angeles Center
Mon 01:40:24 AM 35.4447 -119.6356 182° South 478 550 37,000  Level Los Angeles Center
Mon 01:41:26 AM 35.3108 -119.6406 182° South 478 550 37,000 -537 Level Los Angeles Center
Mon 01:42:27 AM 35.1850 -119.5828 159° South 486 559 35,900 -2,115 Descending Los Angeles Center
Mon 01:43:28 AM 35.0739 -119.4856 144° Southeast 488 562 32,700 -3,000 Descending Los Angeles Center
Mon 01:44:29 AM 34.9617 -119.3900 145° Southeast 490 564 29,800 -2,607 Descending Los Angeles Center
Mon 01:45:30 AM 34.8542 -119.2986 145° Southeast 476 548 27,400 -2,311 Descending Los Angeles Center
Mon 01:46:31 AM 34.7511 -119.2100 145° Southeast 456 525 25,100 -2,213 Descending Los Angeles Center
Mon 01:47:32 AM 34.6514 -119.1253 145° Southeast 442 509 22,900 -2,213 Descending Los Angeles Center
Mon 01:48:33 AM 34.5497 -119.0425 146° Southeast 418 481 20,600 -2,164 Descending Los Angeles Center
Mon 01:49:34 AM 34.4597 -118.9697 146° Southeast 392 451 18,500 -2,033 Descending Los Angeles Center
Mon 01:50:34 AM 34.3758 -118.8978 145° Southeast 370 426 16,500 -1,983 Descending Los Angeles Center
Mon 01:51:35 AM 34.2842 -118.8558 159° South 354 407 14,500 -1,967 Descending Los Angeles Center
Mon 01:52:36 AM 34.1931 -118.8214 163° South 347 399 12,500 -1,721 Descending Los Angeles Center
Mon 01:53:37 AM 34.1236 -118.7631 145° Southeast 329 379 11,000 -1,230 Descending Los Angeles Center
Mon 01:54:38 AM 34.0864 -118.6581 113° Southeast 295 339 10,000 -1,180 Descending Los Angeles Center
Mon 01:55:39 AM 34.0550 -118.5761 115° Southeast 270 311 8,600 -1,475 Descending Los Angeles Center
Mon 01:56:40 AM 34.0231 -118.4911 114° Southeast 276 318 7,000 -836 Descending Los Angeles Center
Mon 01:57:41 AM 34.0169 -118.4050 95° East 261 300 6,900 -1,033 Descending Los Angeles Center
Mon 01:58:42 AM 34.0225 -118.3206 85° East 253 291 4,900 -1,983 Descending Los Angeles Center
Mon 01:59:42 AM 34.0208 -118.2408 91° East 252 290 2,900 -1,388 Descending Los Angeles Center
Mon 02:00:43 AM 33.9800 -118.2636 205° Southwest 211 243 2,100 -689 Descending Los Angeles Center
Mon 02:01:44 AM 33.9606 -118.3153 246° West 185 213 1,500 -590 Descending Los Angeles Center
Mon 02:02:45 AM 33.9575 -118.3628 266° West 160 184 900 -639 Descending Los Angeles Center
Mon 02:03:46 AM 33.9517 -118.4117 262° West 147 169 200 -689 Descending Los Angeles Center
Mon 02:05:00 AM 33.9425 -118.4081 228° Southwest  Level Estimated

Login

Don't have an account? Register now (free) for customized features, flight alerts, and more!